sensor_id;sensor_type;location;lat;lon;timestamp;pressure;altitude;pressure_sealevel;temperature;humidity
61742;BME280;47650;49.848;9.620;2024-03-02T00:00:44;98528.78;;;6.03;100.00
61742;BME280;47650;49.848;9.620;2024-03-02T00:03:13;98464.06;;;5.73;100.00
61742;BME280;47650;49.848;9.620;2024-03-02T00:05:41;98370.66;;;5.22;100.00
61742;BME280;47650;49.848;9.620;2024-03-02T00:08:07;98528.22;;;6.19;100.00
61742;BME280;47650;49.848;9.620;2024-03-02T00:10:37;98510.22;;;6.15;100.00
61742;BME280;47650;49.848;9.620;2024-03-02T00:13:06;98505.78;;;6.15;100.00
61742;BME280;47650;49.848;9.620;2024-03-02T00:15:49;98512.66;;;6.26;100.00
61742;BME280;47650;49.848;9.620;2024-03-02T00:18:21;98514.19;;;6.29;100.00
61742;BME280;47650;49.848;9.620;2024-03-02T00:20:47;98507.63;;;6.33;100.00
61742;BME280;47650;49.848;9.620;2024-03-02T00:23:19;98505.69;;;6.35;100.00
61742;BME280;47650;49.848;9.620;2024-03-02T00:25:51;98506.00;;;6.32;100.00
61742;BME280;47650;49.848;9.620;2024-03-02T00:28:41;98508.19;;;6.36;100.00
61742;BME280;47650;49.848;9.620;2024-03-02T00:31:13;98505.41;;;6.38;100.00
61742;BME280;47650;49.848;9.620;2024-03-02T00:33:43;98468.94;;;6.15;100.00
61742;BME280;47650;49.848;9.620;2024-03-02T00:36:10;98517.34;;;6.32;100.00
61742;BME280;47650;49.848;9.620;2024-03-02T00:38:53;98521.44;;;6.45;100.00
61742;BME280;47650;49.848;9.620;2024-03-02T00:41:26;98515.06;;;6.47;100.00
61742;BME280;47650;49.848;9.620;2024-03-02T00:46:21;98471.84;;;6.12;100.00
61742;BME280;47650;49.848;9.620;2024-03-02T00:48:57;98504.47;;;6.29;100.00
61742;BME280;47650;49.848;9.620;2024-03-02T00:51:25;98532.00;;;6.35;100.00
61742;BME280;47650;49.848;9.620;2024-03-02T00:54:01;98509.31;;;6.34;100.00
61742;BME280;47650;49.848;9.620;2024-03-02T00:56:32;98477.81;;;6.14;100.00
61742;BME280;47650;49.848;9.620;2024-03-02T00:58:58;98494.41;;;6.25;100.00
61742;BME280;47650;49.848;9.620;2024-03-02T01:01:23;98528.91;;;6.49;100.00
61742;BME280;47650;49.848;9.620;2024-03-02T01:03:50;98537.63;;;6.50;100.00
61742;BME280;47650;49.848;9.620;2024-03-02T01:06:20;98533.06;;;6.52;100.00
61742;BME280;47650;49.848;9.620;2024-03-02T01:08:47;98503.16;;;6.43;100.00
61742;BME280;47650;49.848;9.620;2024-03-02T01:11:16;98519.88;;;6.52;100.00
61742;BME280;47650;49.848;9.620;2024-03-02T01:13:47;98511.16;;;6.51;100.00
61742;BME280;47650;49.848;9.620;2024-03-02T01:16:13;98443.22;;;6.09;100.00
61742;BME280;47650;49.848;9.620;2024-03-02T01:18:41;98480.25;;;6.26;100.00
61742;BME280;47650;49.848;9.620;2024-03-02T01:21:07;98439.28;;;5.76;100.00
61742;BME280;47650;49.848;9.620;2024-03-02T01:23:34;98515.41;;;6.34;100.00
61742;BME280;47650;49.848;9.620;2024-03-02T01:26:01;98448.44;;;5.72;100.00
61742;BME280;47650;49.848;9.620;2024-03-02T01:28:33;98503.50;;;6.30;100.00
61742;BME280;47650;49.848;9.620;2024-03-02T01:30:58;98499.00;;;6.13;100.00
61742;BME280;47650;49.848;9.620;2024-03-02T01:33:25;98518.84;;;5.88;100.00
61742;BME280;47650;49.848;9.620;2024-03-02T01:35:50;98496.53;;;6.11;100.00
61742;BME280;47650;49.848;9.620;2024-03-02T01:38:16;98512.13;;;6.22;100.00
61742;BME280;47650;49.848;9.620;2024-03-02T01:40:44;98502.44;;;6.23;100.00
61742;BME280;47650;49.848;9.620;2024-03-02T01:43:15;98428.59;;;5.77;100.00
61742;BME280;47650;49.848;9.620;2024-03-02T01:45:41;98505.25;;;6.02;100.00
61742;BME280;47650;49.848;9.620;2024-03-02T01:48:10;98463.38;;;5.71;100.00
61742;BME280;47650;49.848;9.620;2024-03-02T01:50:36;98491.19;;;5.83;100.00
61742;BME280;47650;49.848;9.620;2024-03-02T01:53:05;98435.44;;;5.60;100.00
61742;BME280;47650;49.848;9.620;2024-03-02T01:55:32;98499.03;;;6.03;100.00
61742;BME280;47650;49.848;9.620;2024-03-02T01:58:00;98482.28;;;5.94;100.00
61742;BME280;47650;49.848;9.620;2024-03-02T02:00:26;98492.78;;;5.94;100.00
61742;BME280;47650;49.848;9.620;2024-03-02T02:02:52;98501.13;;;5.90;100.00
61742;BME280;47650;49.848;9.620;2024-03-02T02:05:18;98463.81;;;5.57;100.00
61742;BME280;47650;49.848;9.620;2024-03-02T02:07:47;98480.53;;;5.65;100.00
61742;BME280;47650;49.848;9.620;2024-03-02T02:10:17;98459.41;;;5.47;100.00
61742;BME280;47650;49.848;9.620;2024-03-02T02:12:42;98479.03;;;5.53;100.00
61742;BME280;47650;49.848;9.620;2024-03-02T02:15:27;98513.91;;;5.65;100.00
61742;BME280;47650;49.848;9.620;2024-03-02T02:17:59;98510.63;;;5.43;100.00
61742;BME280;47650;49.848;9.620;2024-03-02T02:20:26;98502.03;;;5.41;100.00
61742;BME280;47650;49.848;9.620;2024-03-02T02:23:03;98501.78;;;5.35;100.00
61742;BME280;47650;49.848;9.620;2024-03-02T02:25:30;98518.38;;;5.35;100.00
61742;BME280;47650;49.848;9.620;2024-03-02T02:28:02;98512.00;;;5.28;100.00
61742;BME280;47650;49.848;9.620;2024-03-02T02:30:31;98442.28;;;4.75;100.00
61742;BME280;47650;49.848;9.620;2024-03-02T02:32:57;98525.00;;;5.10;100.00
61742;BME280;47650;49.848;9.620;2024-03-02T02:35:30;98485.44;;;4.92;100.00
61742;BME280;47650;49.848;9.620;2024-03-02T02:37:58;98496.63;;;4.94;100.00
61742;BME280;47650;49.848;9.620;2024-03-02T02:40:24;98494.56;;;4.88;100.00
61742;BME280;47650;49.848;9.620;2024-03-02T02:42:52;98500.09;;;4.85;100.00
61742;BME280;47650;49.848;9.620;2024-03-02T02:45:20;98436.97;;;4.26;100.00
61742;BME280;47650;49.848;9.620;2024-03-02T02:47:46;98409.97;;;4.05;100.00
61742;BME280;47650;49.848;9.620;2024-03-02T02:50:13;98497.69;;;4.62;100.00
61742;BME280;47650;49.848;9.620;2024-03-02T02:52:40;98468.75;;;4.43;100.00
61742;BME280;47650;49.848;9.620;2024-03-02T02:55:07;98492.00;;;4.47;100.00
61742;BME280;47650;49.848;9.620;2024-03-02T02:57:34;98498.63;;;4.42;100.00
61742;BME280;47650;49.848;9.620;2024-03-02T03:00:16;98492.25;;;4.35;100.00
61742;BME280;47650;49.848;9.620;2024-03-02T03:02:47;98297.00;;;3.06;100.00
61742;BME280;47650;49.848;9.620;2024-03-02T03:05:14;98488.63;;;4.26;100.00
61742;BME280;47650;49.848;9.620;2024-03-02T03:07:40;98458.41;;;4.01;100.00
61742;BME280;47650;49.848;9.620;2024-03-02T03:10:08;98488.84;;;4.13;100.00
61742;BME280;47650;49.848;9.620;2024-03-02T03:12:36;98424.56;;;3.67;100.00
61742;BME280;47650;49.848;9.620;2024-03-02T03:15:15;98445.75;;;3.75;100.00
61742;BME280;47650;49.848;9.620;2024-03-02T03:17:41;98490.44;;;3.94;100.00
61742;BME280;47650;49.848;9.620;2024-03-02T03:20:09;98472.41;;;3.80;100.00
61742;BME280;47650;49.848;9.620;2024-03-02T03:22:38;98451.78;;;3.66;100.00
61742;BME280;47650;49.848;9.620;2024-03-02T03:25:04;98475.75;;;3.61;100.00
61742;BME280;47650;49.848;9.620;2024-03-02T03:27:30;98499.91;;;3.65;100.00
61742;BME280;47650;49.848;9.620;2024-03-02T03:29:57;98499.16;;;3.74;100.00
61742;BME280;47650;49.848;9.620;2024-03-02T03:32:22;98462.84;;;3.48;100.00
61742;BME280;47650;49.848;9.620;2024-03-02T03:34:48;98503.94;;;3.69;100.00
61742;BME280;47650;49.848;9.620;2024-03-02T03:37:14;98461.69;;;3.41;100.00
61742;BME280;47650;49.848;9.620;2024-03-02T03:39:39;98510.91;;;3.58;100.00
61742;BME280;47650;49.848;9.620;2024-03-02T03:42:06;98498.28;;;3.73;100.00
61742;BME280;47650;49.848;9.620;2024-03-02T03:44:31;98471.50;;;3.70;100.00
61742;BME280;47650;49.848;9.620;2024-03-02T03:46:59;98499.00;;;3.97;100.00
61742;BME280;47650;49.848;9.620;2024-03-02T03:49:26;98502.06;;;4.02;100.00
61742;BME280;47650;49.848;9.620;2024-03-02T03:51:52;98479.56;;;3.78;100.00
61742;BME280;47650;49.848;9.620;2024-03-02T03:54:20;98505.63;;;4.01;100.00
61742;BME280;47650;49.848;9.620;2024-03-02T03:56:49;98530.19;;;4.00;100.00
61742;BME280;47650;49.848;9.620;2024-03-02T03:59:19;98514.66;;;3.87;100.00
61742;BME280;47650;49.848;9.620;2024-03-02T04:01:44;98487.00;;;3.73;100.00
61742;BME280;47650;49.848;9.620;2024-03-02T04:04:23;98429.41;;;3.41;100.00
61742;BME280;47650;49.848;9.620;2024-03-02T04:06:50;98302.16;;;2.65;100.00
61742;BME280;47650;49.848;9.620;2024-03-02T04:09:17;98493.38;;;3.80;100.00
61742;BME280;47650;49.848;9.620;2024-03-02T04:11:45;98469.78;;;3.80;100.00
61742;BME280;47650;49.848;9.620;2024-03-02T04:14:16;98499.00;;;3.97;100.00
61742;BME280;47650;49.848;9.620;2024-03-02T04:16:43;98502.50;;;4.07;100.00
61742;BME280;47650;49.848;9.620;2024-03-02T04:19:08;98497.13;;;4.18;100.00
61742;BME280;47650;49.848;9.620;2024-03-02T04:21:36;98496.38;;;4.27;100.00
61742;BME280;47650;49.848;9.620;2024-03-02T04:24:02;98497.75;;;4.31;100.00
61742;BME280;47650;49.848;9.620;2024-03-02T04:26:33;98495.56;;;4.46;100.00
61742;BME280;47650;49.848;9.620;2024-03-02T04:29:15;98497.97;;;4.59;100.00
61742;BME280;47650;49.848;9.620;2024-03-02T04:31:42;98495.31;;;4.49;100.00
61742;BME280;47650;49.848;9.620;2024-03-02T04:34:09;98498.91;;;4.58;100.00
61742;BME280;47650;49.848;9.620;2024-03-02T04:36:36;98505.03;;;4.68;100.00
61742;BME280;47650;49.848;9.620;2024-03-02T04:39:02;98452.75;;;4.46;100.00
61742;BME280;47650;49.848;9.620;2024-03-02T04:41:38;98499.25;;;4.84;100.00
61742;BME280;47650;49.848;9.620;2024-03-02T04:44:03;98497.19;;;4.98;100.00
61742;BME280;47650;49.848;9.620;2024-03-02T04:46:36;98509.94;;;5.02;100.00
61742;BME280;47650;49.848;9.620;2024-03-02T04:49:03;98520.00;;;4.97;100.00
61742;BME280;47650;49.848;9.620;2024-03-02T04:51:30;98495.69;;;4.95;100.00
61742;BME280;47650;49.848;9.620;2024-03-02T04:53:55;98503.16;;;5.09;100.00
61742;BME280;47650;49.848;9.620;2024-03-02T04:56:21;98530.81;;;5.33;100.00
61742;BME280;47650;49.848;9.620;2024-03-02T04:59:05;98465.81;;;5.06;100.00
61742;BME280;47650;49.848;9.620;2024-03-02T05:01:31;98497.88;;;5.39;100.00
61742;BME280;47650;49.848;9.620;2024-03-02T05:03:58;98481.97;;;5.40;100.00
61742;BME280;47650;49.848;9.620;2024-03-02T05:06:28;98515.44;;;5.58;100.00
61742;BME280;47650;49.848;9.620;2024-03-02T05:08:59;98510.88;;;5.60;100.00
61742;BME280;47650;49.848;9.620;2024-03-02T05:11:24;98475.75;;;5.22;100.00
61742;BME280;47650;49.848;9.620;2024-03-02T05:14:06;98447.44;;;5.16;100.00
61742;BME280;47650;49.848;9.620;2024-03-02T05:16:35;98528.06;;;5.25;100.00
61742;BME280;47650;49.848;9.620;2024-03-02T05:19:01;98497.06;;;5.19;100.00
61742;BME280;47650;49.848;9.620;2024-03-02T05:21:27;98526.66;;;5.40;100.00
61742;BME280;47650;49.848;9.620;2024-03-02T05:23:52;98522.78;;;5.44;100.00
61742;BME280;47650;49.848;9.620;2024-03-02T05:26:18;98515.31;;;5.50;100.00
61742;BME280;47650;49.848;9.620;2024-03-02T05:28:43;98461.38;;;5.16;100.00
61742;BME280;47650;49.848;9.620;2024-03-02T05:31:10;98528.59;;;5.58;100.00
61742;BME280;47650;49.848;9.620;2024-03-02T05:33:37;98446.31;;;5.08;100.00
61742;BME280;47650;49.848;9.620;2024-03-02T05:36:04;98485.03;;;5.36;100.00
61742;BME280;47650;49.848;9.620;2024-03-02T05:38:30;98525.25;;;5.65;100.00
61742;BME280;47650;49.848;9.620;2024-03-02T05:40:55;98511.41;;;5.63;100.00
61742;BME280;47650;49.848;9.620;2024-03-02T05:43:21;98499.66;;;5.58;100.00
61742;BME280;47650;49.848;9.620;2024-03-02T05:45:46;98524.72;;;5.42;100.00
61742;BME280;47650;49.848;9.620;2024-03-02T05:48:12;98526.09;;;5.46;100.00
61742;BME280;47650;49.848;9.620;2024-03-02T05:50:38;98509.09;;;5.31;100.00
61742;BME280;47650;49.848;9.620;2024-03-02T05:53:05;98487.69;;;5.26;100.00
61742;BME280;47650;49.848;9.620;2024-03-02T05:55:31;98341.94;;;4.32;100.00
61742;BME280;47650;49.848;9.620;2024-03-02T05:57:56;98511.16;;;5.37;100.00
61742;BME280;47650;49.848;9.620;2024-03-02T06:00:42;98500.94;;;5.34;100.00
61742;BME280;47650;49.848;9.620;2024-03-02T06:03:08;98496.78;;;5.22;100.00
61742;BME280;47650;49.848;9.620;2024-03-02T06:05:34;98511.88;;;5.30;100.00
61742;BME280;47650;49.848;9.620;2024-03-02T06:07:59;98497.06;;;5.19;100.00
61742;BME280;47650;49.848;9.620;2024-03-02T06:10:26;98527.34;;;5.33;100.00
61742;BME280;47650;49.848;9.620;2024-03-02T06:12:53;98524.56;;;4.95;100.00
61742;BME280;47650;49.848;9.620;2024-03-02T06:15:20;98497.16;;;4.68;100.00
61742;BME280;47650;49.848;9.620;2024-03-02T06:17:45;98546.16;;;5.18;100.00
61742;BME280;47650;49.848;9.620;2024-03-02T06:20:13;98535.94;;;5.25;100.00
61742;BME280;47650;49.848;9.620;2024-03-02T06:22:38;98513.53;;;5.21;100.00
61742;BME280;47650;49.848;9.620;2024-03-02T06:25:05;98545.91;;;5.51;100.00
61742;BME280;47650;49.848;9.620;2024-03-02T06:27:31;98526.09;;;5.56;100.00
61742;BME280;47650;49.848;9.620;2024-03-02T06:29:57;98556.09;;;5.83;100.00
61742;BME280;47650;49.848;9.620;2024-03-02T06:32:23;98559.38;;;5.95;100.00
61742;BME280;47650;49.848;9.620;2024-03-02T06:34:50;98554.28;;;6.03;100.00
61742;BME280;47650;49.848;9.620;2024-03-02T06:37:15;98556.06;;;6.12;100.00
61742;BME280;47650;49.848;9.620;2024-03-02T06:39:41;98580.53;;;6.22;100.00
61742;BME280;47650;49.848;9.620;2024-03-02T06:42:06;98551.44;;;6.24;100.00
61742;BME280;47650;49.848;9.620;2024-03-02T06:44:35;98538.16;;;6.26;100.00
61742;BME280;47650;49.848;9.620;2024-03-02T06:47:00;98546.56;;;6.39;100.00
61742;BME280;47650;49.848;9.620;2024-03-02T06:49:27;98551.75;;;6.58;100.00
61742;BME280;47650;49.848;9.620;2024-03-02T06:51:52;98547.59;;;6.56;100.00
61742;BME280;47650;49.848;9.620;2024-03-02T06:54:17;98532.22;;;6.51;100.00
61742;BME280;47650;49.848;9.620;2024-03-02T06:56:48;98554.59;;;6.75;100.00
61742;BME280;47650;49.848;9.620;2024-03-02T06:59:14;98548.19;;;6.77;100.00
61742;BME280;47650;49.848;9.620;2024-03-02T07:01:40;98555.34;;;6.85;100.00
61742;BME280;47650;49.848;9.620;2024-03-02T07:04:05;98552.41;;;6.88;100.00
61742;BME280;47650;49.848;9.620;2024-03-02T07:06:31;98570.16;;;7.14;100.00
61742;BME280;47650;49.848;9.620;2024-03-02T07:08:57;98559.50;;;6.88;100.00
61742;BME280;47650;49.848;9.620;2024-03-02T07:11:23;98573.22;;;7.09;100.00
61742;BME280;47650;49.848;9.620;2024-03-02T07:13:48;98566.31;;;7.26;100.00
61742;BME280;47650;49.848;9.620;2024-03-02T07:16:22;98505.06;;;6.96;100.00
61742;BME280;47650;49.848;9.620;2024-03-02T07:18:55;98570.91;;;7.42;100.00
61742;BME280;47650;49.848;9.620;2024-03-02T07:21:22;98570.63;;;7.63;100.00
61742;BME280;47650;49.848;9.620;2024-03-02T07:23:48;98525.03;;;7.53;100.00
61742;BME280;47650;49.848;9.620;2024-03-02T07:26:14;98565.69;;;7.86;100.00
61742;BME280;47650;49.848;9.620;2024-03-02T07:28:46;98563.63;;;7.98;100.00
61742;BME280;47650;49.848;9.620;2024-03-02T07:31:13;98571.34;;;8.18;100.00
61742;BME280;47650;49.848;9.620;2024-03-02T07:33:38;98567.59;;;8.28;100.00
61742;BME280;47650;49.848;9.620;2024-03-02T07:36:05;98554.28;;;8.38;100.00
61742;BME280;47650;49.848;9.620;2024-03-02T07:38:31;98502.03;;;8.16;100.00
61742;BME280;47650;49.848;9.620;2024-03-02T07:41:00;98474.09;;;8.13;100.00
61742;BME280;47650;49.848;9.620;2024-03-02T07:43:28;98538.94;;;8.68;100.00
61742;BME280;47650;49.848;9.620;2024-03-02T07:45:58;98547.88;;;8.75;95.10
61742;BME280;47650;49.848;9.620;2024-03-02T07:48:25;98526.06;;;8.73;95.79
61742;BME280;47650;49.848;9.620;2024-03-02T07:50:50;98549.75;;;8.91;94.88
61742;BME280;47650;49.848;9.620;2024-03-02T07:53:16;98543.22;;;7.82;97.56
61742;BME280;47650;49.848;9.620;2024-03-02T07:55:43;98419.28;;;6.48;100.00
61742;BME280;47650;49.848;9.620;2024-03-02T07:58:08;98556.00;;;7.15;100.00
61742;BME280;47650;49.848;9.620;2024-03-02T08:00:35;98409.69;;;6.11;100.00
61742;BME280;47650;49.848;9.620;2024-03-02T08:03:01;98552.22;;;7.00;100.00
61742;BME280;47650;49.848;9.620;2024-03-02T08:05:26;98581.69;;;6.57;100.00
61742;BME280;47650;49.848;9.620;2024-03-02T08:07:52;98583.03;;;6.24;100.00
61742;BME280;47650;49.848;9.620;2024-03-02T08:10:19;98584.34;;;6.57;100.00
61742;BME280;47650;49.848;9.620;2024-03-02T08:12:45;98578.28;;;7.21;100.00
61742;BME280;47650;49.848;9.620;2024-03-02T08:15:10;98577.69;;;7.81;100.00
61742;BME280;47650;49.848;9.620;2024-03-02T08:17:40;98567.34;;;8.14;100.00
61742;BME280;47650;49.848;9.620;2024-03-02T08:20:15;98570.56;;;8.52;100.00
61742;BME280;47650;49.848;9.620;2024-03-02T08:22:40;98569.72;;;8.25;100.00
61742;BME280;47650;49.848;9.620;2024-03-02T08:25:07;98511.53;;;8.35;100.00
61742;BME280;47650;49.848;9.620;2024-03-02T08:27:33;98556.69;;;8.92;100.00
61742;BME280;47650;49.848;9.620;2024-03-02T08:30:06;98548.94;;;8.99;100.00
61742;BME280;47650;49.848;9.620;2024-03-02T08:32:32;98562.22;;;9.23;100.00
61742;BME280;47650;49.848;9.620;2024-03-02T08:35:04;98559.59;;;9.40;100.00
61742;BME280;47650;49.848;9.620;2024-03-02T08:37:29;98546.72;;;9.53;98.58
61742;BME280;47650;49.848;9.620;2024-03-02T08:39:56;98532.81;;;9.59;97.56
61742;BME280;47650;49.848;9.620;2024-03-02T08:42:22;98385.22;;;8.81;97.69
61742;BME280;47650;49.848;9.620;2024-03-02T08:44:47;98560.25;;;10.08;96.45
61742;BME280;47650;49.848;9.620;2024-03-02T08:47:14;98564.03;;;10.22;95.18
61742;BME280;47650;49.848;9.620;2024-03-02T08:49:39;98562.81;;;9.01;93.65
61742;BME280;47650;49.848;9.620;2024-03-02T08:52:05;98600.75;;;8.23;100.00
61742;BME280;47650;49.848;9.620;2024-03-02T08:54:30;98569.09;;;7.79;100.00
61742;BME280;47650;49.848;9.620;2024-03-02T08:56:58;98563.22;;;7.49;100.00
61742;BME280;47650;49.848;9.620;2024-03-02T08:59:23;98563.19;;;8.03;100.00
61742;BME280;47650;49.848;9.620;2024-03-02T09:01:50;98573.69;;;7.05;100.00
61742;BME280;47650;49.848;9.620;2024-03-02T09:04:15;98559.25;;;6.81;100.00
61742;BME280;47650;49.848;9.620;2024-03-02T09:06:40;98580.66;;;6.96;100.00
61742;BME280;47650;49.848;9.620;2024-03-02T09:09:08;98583.03;;;7.17;100.00
61742;BME280;47650;49.848;9.620;2024-03-02T09:11:34;98554.34;;;7.50;100.00
61742;BME280;47650;49.848;9.620;2024-03-02T09:14:00;98581.44;;;8.49;100.00
61742;BME280;47650;49.848;9.620;2024-03-02T09:16:27;98528.44;;;8.84;100.00
61742;BME280;47650;49.848;9.620;2024-03-02T09:18:56;98568.22;;;9.58;100.00
61742;BME280;47650;49.848;9.620;2024-03-02T09:21:22;98574.47;;;10.23;100.00
61742;BME280;47650;49.848;9.620;2024-03-02T09:23:47;98563.97;;;10.63;100.00
61742;BME280;47650;49.848;9.620;2024-03-02T09:26:13;98539.81;;;10.49;91.62
61742;BME280;47650;49.848;9.620;2024-03-02T09:28:43;98448.16;;;10.63;95.12
61742;BME280;47650;49.848;9.620;2024-03-02T09:31:09;98566.53;;;11.65;83.72
61742;BME280;47650;49.848;9.620;2024-03-02T09:33:41;98572.66;;;12.12;81.05
61742;BME280;47650;49.848;9.620;2024-03-02T09:36:16;98570.81;;;12.42;78.68
61742;BME280;47650;49.848;9.620;2024-03-02T09:38:42;98556.53;;;12.88;75.18
61742;BME280;47650;49.848;9.620;2024-03-02T09:41:07;98534.03;;;12.90;68.72
61742;BME280;47650;49.848;9.620;2024-03-02T09:43:33;98561.78;;;13.76;71.27
61742;BME280;47650;49.848;9.620;2024-03-02T09:45:58;98490.19;;;13.66;65.33
61742;BME280;47650;49.848;9.620;2024-03-02T09:48:23;98540.91;;;14.42;64.70
61742;BME280;47650;49.848;9.620;2024-03-02T09:50:49;98536.09;;;12.58;73.94
61742;BME280;47650;49.848;9.620;2024-03-02T09:53:18;98547.84;;;11.04;84.78
61742;BME280;47650;49.848;9.620;2024-03-02T09:55:47;98514.38;;;12.10;89.29
61742;BME280;47650;49.848;9.620;2024-03-02T09:58:12;98557.75;;;12.02;84.60
61742;BME280;47650;49.848;9.620;2024-03-02T10:00:37;98549.41;;;13.10;86.51
61742;BME280;47650;49.848;9.620;2024-03-02T10:03:03;98548.50;;;13.61;80.31
61742;BME280;47650;49.848;9.620;2024-03-02T10:05:30;98535.63;;;14.14;73.21
61742;BME280;47650;49.848;9.620;2024-03-02T10:08:02;98536.06;;;14.53;67.00
61742;BME280;47650;49.848;9.620;2024-03-02T10:10:39;98524.69;;;15.60;66.60
61742;BME280;47650;49.848;9.620;2024-03-02T10:13:12;98528.78;;;16.30;58.90
61742;BME280;47650;49.848;9.620;2024-03-02T10:15:39;98499.41;;;16.82;56.46
61742;BME280;47650;49.848;9.620;2024-03-02T10:18:12;98500.56;;;17.95;51.01
61742;BME280;47650;49.848;9.620;2024-03-02T10:20:39;98516.88;;;18.55;50.89
61742;BME280;47650;49.848;9.620;2024-03-02T10:23:15;98513.63;;;17.84;48.84
61742;BME280;47650;49.848;9.620;2024-03-02T10:25:42;98506.72;;;17.13;53.48
61742;BME280;47650;49.848;9.620;2024-03-02T10:28:07;98503.50;;;17.29;51.78
61742;BME280;47650;49.848;9.620;2024-03-02T10:30:33;98495.69;;;16.96;52.87
61742;BME280;47650;49.848;9.620;2024-03-02T10:33:00;98464.66;;;19.72;46.95
61742;BME280;47650;49.848;9.620;2024-03-02T10:35:26;98480.03;;;18.81;47.35
61742;BME280;47650;49.848;9.620;2024-03-02T10:37:54;98464.25;;;20.63;44.50
61742;BME280;47650;49.848;9.620;2024-03-02T10:40:23;98480.50;;;22.67;39.26
61742;BME280;47650;49.848;9.620;2024-03-02T10:42:50;98431.50;;;23.07;36.76
61742;BME280;47650;49.848;9.620;2024-03-02T10:45:19;98466.72;;;24.73;34.46
61742;BME280;47650;49.848;9.620;2024-03-02T10:47:47;98448.09;;;26.15;32.06
61742;BME280;47650;49.848;9.620;2024-03-02T10:50:12;98484.19;;;22.83;36.18
61742;BME280;47650;49.848;9.620;2024-03-02T10:52:38;98375.94;;;22.23;37.39
61742;BME280;47650;49.848;9.620;2024-03-02T10:55:09;98457.63;;;26.07;32.65
61742;BME280;47650;49.848;9.620;2024-03-02T10:57:45;98457.66;;;27.28;30.72
61742;BME280;47650;49.848;9.620;2024-03-02T11:00:16;98437.47;;;28.46;27.15
61742;BME280;47650;49.848;9.620;2024-03-02T11:02:56;98459.47;;;24.36;32.06
61742;BME280;47650;49.848;9.620;2024-03-02T11:05:32;98458.41;;;24.37;33.02
61742;BME280;47650;49.848;9.620;2024-03-02T11:08:07;98462.75;;;24.43;33.09
61742;BME280;47650;49.848;9.620;2024-03-02T11:10:37;98459.09;;;23.74;34.38
61742;BME280;47650;49.848;9.620;2024-03-02T11:13:12;98465.22;;;23.32;34.73
61742;BME280;47650;49.848;9.620;2024-03-02T11:15:41;98447.84;;;25.19;32.28
61742;BME280;47650;49.848;9.620;2024-03-02T11:18:08;98440.44;;;26.98;30.07
61742;BME280;47650;49.848;9.620;2024-03-02T11:20:38;98435.13;;;26.72;29.67
61742;BME280;47650;49.848;9.620;2024-03-02T11:23:08;98434.06;;;25.41;31.14
61742;BME280;47650;49.848;9.620;2024-03-02T11:25:34;98446.78;;;24.36;33.73
61742;BME280;47650;49.848;9.620;2024-03-02T11:28:02;98451.59;;;22.67;35.36
61742;BME280;47650;49.848;9.620;2024-03-02T11:33:00;98409.81;;;29.15;27.34
61742;BME280;47650;49.848;9.620;2024-03-02T11:35:26;98372.81;;;29.88;25.27
61742;BME280;47650;49.848;9.620;2024-03-02T11:37:54;98390.34;;;32.01;23.41
61742;BME280;47650;49.848;9.620;2024-03-02T11:40:22;98372.97;;;29.31;25.46
61742;BME280;47650;49.848;9.620;2024-03-02T11:42:49;98386.31;;;31.36;24.00
61742;BME280;47650;49.848;9.620;2024-03-02T11:45:25;98379.31;;;29.92;24.46
61742;BME280;47650;49.848;9.620;2024-03-02T11:47:53;98376.72;;;27.04;27.40
61742;BME280;47650;49.848;9.620;2024-03-02T11:52:58;98368.88;;;30.08;23.95
61742;BME280;47650;49.848;9.620;2024-03-02T11:55:25;98363.28;;;31.14;22.94
61742;BME280;47650;49.848;9.620;2024-03-02T11:57:52;98327.13;;;32.55;21.42
61742;BME280;47650;49.848;9.620;2024-03-02T12:00:21;98367.34;;;28.70;24.10
61742;BME280;47650;49.848;9.620;2024-03-02T12:02:47;98356.63;;;30.19;23.37
61742;BME280;47650;49.848;9.620;2024-03-02T12:05:24;98354.50;;;31.89;22.32
61742;BME280;47650;49.848;9.620;2024-03-02T12:07:55;98345.44;;;32.11;20.05
61742;BME280;47650;49.848;9.620;2024-03-02T12:10:28;98339.34;;;32.49;20.57
61742;BME280;47650;49.848;9.620;2024-03-02T12:12:59;98322.59;;;33.59;19.45
61742;BME280;47650;49.848;9.620;2024-03-02T12:15:30;98318.28;;;34.17;19.54
61742;BME280;47650;49.848;9.620;2024-03-02T12:17:57;98304.72;;;34.21;18.91
61742;BME280;47650;49.848;9.620;2024-03-02T12:20:23;98322.41;;;33.16;20.23
61742;BME280;47650;49.848;9.620;2024-03-02T12:22:50;98272.25;;;32.72;19.17
61742;BME280;47650;49.848;9.620;2024-03-02T12:25:17;98312.75;;;34.77;17.82
61742;BME280;47650;49.848;9.620;2024-03-02T12:27:43;98306.41;;;34.55;18.11
61742;BME280;47650;49.848;9.620;2024-03-02T12:30:11;98260.03;;;34.99;17.83
61742;BME280;47650;49.848;9.620;2024-03-02T12:32:37;98267.94;;;36.21;16.98
61742;BME280;47650;49.848;9.620;2024-03-02T12:35:04;98271.84;;;35.46;17.67
61742;BME280;47650;49.848;9.620;2024-03-02T12:37:30;98177.56;;;33.43;17.87
61742;BME280;47650;49.848;9.620;2024-03-02T12:39:56;98291.38;;;34.74;17.88
61742;BME280;47650;49.848;9.620;2024-03-02T12:42:21;98282.53;;;36.21;16.29
61742;BME280;47650;49.848;9.620;2024-03-02T12:44:46;98238.69;;;36.32;16.40
61742;BME280;47650;49.848;9.620;2024-03-02T12:47:12;98277.13;;;36.12;16.93
61742;BME280;47650;49.848;9.620;2024-03-02T12:49:40;98225.91;;;35.37;16.91
61742;BME280;47650;49.848;9.620;2024-03-02T12:52:05;98269.97;;;36.36;16.73
61742;BME280;47650;49.848;9.620;2024-03-02T12:54:31;98268.97;;;36.57;16.40
61742;BME280;47650;49.848;9.620;2024-03-02T12:56:56;98263.09;;;36.70;16.64
61742;BME280;47650;49.848;9.620;2024-03-02T12:59:24;98253.94;;;36.01;16.47
61742;BME280;47650;49.848;9.620;2024-03-02T13:01:55;98255.94;;;34.72;17.04
61742;BME280;47650;49.848;9.620;2024-03-02T13:04:28;98251.22;;;34.73;16.73
61742;BME280;47650;49.848;9.620;2024-03-02T13:06:55;98210.69;;;34.40;16.95
61742;BME280;47650;49.848;9.620;2024-03-02T13:09:24;98193.00;;;33.86;17.79
61742;BME280;47650;49.848;9.620;2024-03-02T13:11:50;98244.38;;;34.79;16.89